^^
Station Historical Data
Daily Summary for September 19, 2017 Units:  Metric    English   Both
« Previous Day
Next Day »
Daily Weekly Monthly Yearly Custom
  High: Low: Average:
Temperature: 32.5 °C 23.2 °C 28.3 °C
Dew Point: -0.3 °C -5.4 °C -3.3 °C
Humidity: 19% 9% 13%
Wind Speed: 19.5km/h 0km/h 5.1km/h
Wind Gust: 29km/h - -
Wind- - ESE
Pressure: 1014.1 hPa 1011.4 hPa -
Precipitation: 0 mm    
Historical Graphs
 
 
Tabular Data for September 19, 2017
Time Temperature Dew Point Pressure Wind Wind Speed Wind Gust Humidity Rainfall Rate (Hourly) solar Conditions
13:43 29.8 °C -1.6 °C 1013.4 hPa East 6.4 km/h 11.3 km/h 13% 0 mm 782.0 W/m2
13:49 29.8 °C -1.6 °C 1013.4 hPa Calm     13% 0 mm 763.0 W/m2
13:56 30 °C -1.4 °C 1013.1 hPa Calm   8 km/h 13% 0 mm 763.0 W/m2
14:08 30.8 °C -3.1 °C 1012.8 hPa East 14.3 km/h 16.1 km/h 11% 0 mm 742.0 W/m2
14:18 30.7 °C -3.1 °C 1012.4 hPa East 9.7 km/h 11.3 km/h 11% 0 mm 715.0 W/m2
14:33 30.9 °C -3 °C 1012.1 hPa ENE 4.7 km/h 17.7 km/h 11% 0 mm 682.0 W/m2
14:49 31.1 °C -2.8 °C 1011.7 hPa NE 3.2 km/h 16.1 km/h 11% 0 mm 654.0 W/m2
15:02 31.3 °C -4 °C 1011.7 hPa NE 1.4 km/h 9.7 km/h 10% 0 mm 636.0 W/m2
15:10 31.5 °C -3.8 °C 1011.7 hPa Calm   8 km/h 10% 0 mm 603.0 W/m2
15:18 31.6 °C -3.7 °C 1011.7 hPa Calm   9.7 km/h 10% 0 mm 606.0 W/m2
15:30 31.6 °C -3.7 °C 1011.7 hPa NE 1.4 km/h 8 km/h 10% 0 mm 578.0 W/m2
15:43 31.8 °C -3.6 °C 1011.4 hPa Calm     10% 0 mm 536.0 W/m2
16:04 32.4 °C -4.5 °C 1011.4 hPa Calm   4.8 km/h 9% 0 mm 452.0 W/m2
16:19 32.5 °C -4.5 °C 1011.7 hPa NE 1.4 km/h 1.6 km/h 9% 0 mm 418.0 W/m2
16:35 32.1 °C -4.8 °C 1011.4 hPa Calm     9% 0 mm 367.0 W/m2
16:55 32.5 °C -4.5 °C 1011.4 hPa Calm     9% 0 mm 287.0 W/m2
17:17 32.2 °C -4.7 °C 1011.7 hPa Calm     9% 0 mm 232.0 W/m2
17:28 31.8 °C -5 °C 1011.7 hPa Calm     9% 0 mm 178.0 W/m2
17:36 31.6 °C -5.1 °C 1011.7 hPa Calm     9% 0 mm 141.0 W/m2
17:52 31.4 °C -5.3 °C 1011.7 hPa Calm     9% 0 mm 91.0 W/m2
18:07 31.2 °C -5.4 °C 1011.7 hPa Calm     9% 0 mm 47.0 W/m2
18:29 30.1 °C -2.4 °C 1012.1 hPa SE 19.5 km/h 27.4 km/h 12% 0 mm 23.0 W/m2
18:44 29.2 °C -2 °C 1012.4 hPa SSE 19.5 km/h 22.5 km/h 13% 0 mm 7.0 W/m2
18:52 28.8 °C -2.4 °C 1012.4 hPa SSE 16.3 km/h 20.9 km/h 13% 0 mm 0.0 W/m2
19:15 28.2 °C -1.8 °C 1012.4 hPa SSE 13 km/h 19.3 km/h 14% 0 mm 0.0 W/m2
19:23 27.6 °C -2.3 °C 1012.8 hPa SSE 11.1 km/h 14.5 km/h 14% 0 mm 0.0 W/m2
19:38 26.9 °C -1.9 °C 1013.1 hPa SSE 6.4 km/h 11.3 km/h 15% 0 mm 0.0 W/m2
19:53 26.2 °C -1.6 °C 1013.1 hPa SSE 9.7 km/h 12.9 km/h 16% 0 mm 0.0 W/m2
20:01 26.2 °C -1.6 °C 1013.1 hPa SSE 9.7 km/h 12.9 km/h 16% 0 mm 0.0 W/m2
20:08 25.4 °C -1.4 °C 1013.4 hPa SSE 6.4 km/h 8 km/h 17% 0 mm 0.0 W/m2
20:31 24.9 °C -0.3 °C 1013.4 hPa SSE 7.9 km/h 12.9 km/h 19% 0 mm 0.0 W/m2
20:39 25.2 °C -0.8 °C 1013.8 hPa SSE 6.4 km/h 9.7 km/h 18% 0 mm 0.0 W/m2
21:01 24.9 °C -1.8 °C 1013.8 hPa Calm     17% 0 mm 0.0 W/m2
21:16 24.8 °C -3.6 °C 1013.8 hPa SSE 11.1 km/h 14.5 km/h 15% 0 mm 0.0 W/m2
21:25 25.2 °C -4.2 °C 1014.1 hPa Calm   8 km/h 14% 0 mm 0.0 W/m2
21:45 25.5 °C -4 °C 1013.8 hPa SSE 16.3 km/h 20.9 km/h 14% 0 mm 0.0 W/m2
21:52 25.4 °C -4 °C 1014.1 hPa SE 16.3 km/h 29 km/h 14% 0 mm 0.0 W/m2
21:56 25.5 °C -4 °C 1014.1 hPa SE 13 km/h 24.1 km/h 14% 0 mm 0.0 W/m2
23:13 23.3 °C -4.8 °C 1014.1 hPa Calm     15% 0 mm 0.0 W/m2
23:19 23.2 °C -4 °C 1014.1 hPa Calm     16% 0 mm 0.0 W/m2
23:24 23.2 °C -4 °C 1014.1 hPa Calm     16% 0 mm 0.0 W/m2
23:29 23.6 °C -4.6 °C 1014.1 hPa SE 4.7 km/h 12.9 km/h 15% 0 mm 0.0 W/m2
23:39 24.5 °C -4.8 °C 1013.8 hPa Calm     14% 0 mm 0.0 W/m2
23:45 24.6 °C -4.7 °C 1013.8 hPa Calm     14% 0 mm 0.0 W/m2
23:50 24.6 °C -4.7 °C 1013.8 hPa Calm     14% 0 mm 0.0 W/m2
Canyon Roadhouse, Fishriver Canyon, Namibia
Compliments of Weather Underground - 1.75 mb